Time;durP1;ratioP1;P1;durP2;ratioP2;P2;SDS_P1;SDS_P2;PMS_P1;PMS_P2;Temp;Humidity;BMP_temperature;BMP_pressure;BME280_temperature;BME280_humidity;BME280_pressure;Samples;Min_cycle;Max_cycle;Signal;HPM_P1;HPM_P2
2022/12/31 00:01:06;;;;;;;1999.90;999.90;;;14.50;99.90;;;;;;5054047;28;20036;-75
2022/12/31 00:03:32;;;;;;;1999.90;999.90;;;14.50;99.90;;;;;;5053414;28;20029;-75
2022/12/31 00:05:57;;;;;;;1999.90;999.90;;;14.50;99.90;;;;;;5054161;28;20036;-75
2022/12/31 00:08:23;;;;;;;1999.90;999.90;;;14.50;99.90;;;;;;5054211;28;20021;-75
2022/12/31 00:10:48;;;;;;;1999.90;999.90;;;14.40;99.90;;;;;;5052480;28;20025;-74
2022/12/31 00:13:15;;;;;;;1999.90;999.90;;;14.50;99.90;;;;;;5053445;28;20507;-74
2022/12/31 00:15:42;;;;;;;1999.90;999.90;;;14.50;99.90;;;;;;5053912;28;20127;-75
2022/12/31 00:18:08;;;;;;;1999.90;999.90;;;14.60;99.90;;;;;;5054075;28;20024;-77
2022/12/31 00:20:37;;;;;;;1999.90;999.90;;;14.70;99.90;;;;;;5053879;28;20480;-74
2022/12/31 00:23:03;;;;;;;1999.90;999.90;;;14.70;99.90;;;;;;5052114;28;20381;-74
2022/12/31 00:25:29;;;;;;;1999.90;999.90;;;14.70;99.90;;;;;;5053259;28;20025;-76
2022/12/31 00:27:54;;;;;;;1999.90;999.90;;;14.70;99.90;;;;;;5053338;28;20472;-75
2022/12/31 00:30:20;;;;;;;1999.90;999.90;;;14.80;99.90;;;;;;5053711;28;20099;-74
2022/12/31 00:32:45;;;;;;;1999.90;999.90;;;14.70;99.90;;;;;;5053397;28;20059;-75
2022/12/31 00:35:11;;;;;;;1999.90;999.90;;;14.70;99.90;;;;;;5053449;28;20484;-77
2022/12/31 00:37:37;;;;;;;1999.90;999.90;;;14.70;99.90;;;;;;5053478;28;20025;-75
2022/12/31 00:40:03;;;;;;;1999.90;999.90;;;14.60;99.90;;;;;;5053263;28;20033;-75
2022/12/31 00:42:29;;;;;;;1999.90;999.90;;;14.50;99.90;;;;;;5052988;28;20029;-74
2022/12/31 00:44:54;;;;;;;1999.90;999.90;;;14.50;99.90;;;;;;5053135;28;20434;-74
2022/12/31 00:47:20;;;;;;;1999.90;999.90;;;14.50;99.90;;;;;;5053107;28;20029;-75
2022/12/31 00:49:46;;;;;;;1999.90;999.90;;;14.50;99.90;;;;;;5053145;28;20021;-73
2022/12/31 00:52:14;;;;;;;1999.90;999.90;;;14.50;99.90;;;;;;5053251;28;20104;-74
2022/12/31 00:54:40;;;;;;;1999.90;999.90;;;14.50;99.90;;;;;;5053034;28;20400;-76
2022/12/31 00:57:05;;;;;;;1999.90;999.90;;;14.40;99.90;;;;;;5052808;28;20060;-74
2022/12/31 00:59:31;;;;;;;1999.90;999.90;;;14.40;99.90;;;;;;5051728;28;20099;-74
2022/12/31 01:01:57;;;;;;;1999.90;999.90;;;14.40;99.90;;;;;;5052962;28;20490;-76
2022/12/31 01:04:22;;;;;;;1999.90;999.90;;;14.50;99.90;;;;;;5052035;28;20068;-74
2022/12/31 01:06:48;;;;;;;1999.90;999.90;;;14.40;99.90;;;;;;5052838;28;20435;-76
2022/12/31 01:09:15;;;;;;;1999.90;999.90;;;14.40;99.90;;;;;;5052711;28;20071;-77
2022/12/31 01:11:40;;;;;;;1999.90;999.90;;;14.40;99.90;;;;;;5052451;28;20032;-74
2022/12/31 01:14:18;;;;;;;1999.90;999.90;;;14.50;99.90;;;;;;5052599;28;20036;-75
2022/12/31 01:16:53;;;;;;;1999.90;999.90;;;14.60;99.90;;;;;;5050526;28;20475;-75
2022/12/31 01:19:24;;;;;;;1999.90;999.90;;;14.70;99.90;;;;;;5052581;28;20033;-74
2022/12/31 01:21:50;;;;;;;1999.90;999.90;;;14.70;99.90;;;;;;5052362;28;20052;-75
2022/12/31 01:24:17;;;;;;;1999.90;999.90;;;14.70;99.90;;;;;;5051210;28;20017;-74
2022/12/31 01:26:43;;;;;;;1999.90;999.90;;;14.60;99.90;;;;;;5052312;28;20035;-75
2022/12/31 01:29:09;;;;;;;1999.90;999.90;;;14.60;99.90;;;;;;5052293;28;20440;-75
2022/12/31 01:31:37;;;;;;;1999.90;999.90;;;14.50;99.90;;;;;;5052255;28;20399;-75
2022/12/31 01:34:04;;;;;;;1999.90;999.90;;;14.50;99.90;;;;;;5050927;28;20071;-75
2022/12/31 01:36:32;;;;;;;1999.90;999.90;;;14.50;99.90;;;;;;5052111;28;20484;-74
2022/12/31 01:38:59;;;;;;;1999.90;999.90;;;14.50;99.90;;;;;;5052295;28;20105;-73
2022/12/31 01:41:29;;;;;;;1999.90;999.90;;;14.60;99.90;;;;;;5051843;28;20072;-75
2022/12/31 01:44:23;;;;;;;1999.90;999.90;;;14.60;99.90;;;;;;5052123;28;20025;-74
2022/12/31 01:46:56;;;;;;;1999.90;999.90;;;14.60;99.90;;;;;;5052009;28;20039;-74
2022/12/31 01:49:35;;;;;;;1999.90;999.90;;;14.60;99.90;;;;;;5052230;28;20032;-75
2022/12/31 01:52:01;;;;;;;1999.90;999.90;;;14.60;99.90;;;;;;5052266;28;20484;-74
2022/12/31 01:54:29;;;;;;;1999.90;999.90;;;14.60;99.90;;;;;;5051807;28;20070;-74
2022/12/31 01:56:56;;;;;;;1999.90;999.90;;;14.60;99.90;;;;;;5051766;28;20039;-74
2022/12/31 01:59:25;;;;;;;1999.90;999.90;;;14.50;99.90;;;;;;5051711;28;20025;-76
2022/12/31 02:01:51;;;;;;;1999.90;999.90;;;14.50;99.90;;;;;;5052002;28;20048;-75
2022/12/31 02:04:18;;;;;;;1999.90;999.90;;;14.40;99.90;;;;;;5051320;28;20090;-76
2022/12/31 02:07:00;;;;;;;1999.90;999.90;;;14.50;99.90;;;;;;5051932;28;20044;-73
2022/12/31 02:09:26;;;;;;;1999.90;999.90;;;14.50;99.90;;;;;;5051516;28;20037;-75
2022/12/31 02:11:51;;;;;;;1999.90;999.90;;;14.50;99.90;;;;;;5051699;28;20109;-76
2022/12/31 02:14:25;;;;;;;1999.90;999.90;;;14.50;99.90;;;;;;5051833;28;20024;-74
2022/12/31 02:17:16;;;;;;;1999.90;999.90;;;14.60;99.90;;;;;;5051677;28;20059;-75
2022/12/31 02:19:59;;;;;;;1999.90;999.90;;;14.60;99.90;;;;;;5051710;28;20063;-75
2022/12/31 02:23:04;;;;;;;1999.90;999.90;;;14.60;99.90;;;;;;5051583;28;20021;-74
2022/12/31 02:25:29;;;;;;;1999.90;999.90;;;14.60;99.90;;;;;;5051427;28;20438;-76
2022/12/31 02:27:58;;;;;;;1999.90;999.90;;;14.70;99.90;;;;;;5051551;28;20033;-76
2022/12/31 02:30:28;;;;;;;1999.90;999.90;;;14.70;99.90;;;;;;5050474;28;20480;-75
2022/12/31 02:32:57;;;;;;;1999.90;999.90;;;14.70;99.90;;;;;;5051476;28;20037;-74
2022/12/31 02:35:30;;;;;;;1999.90;999.90;;;14.70;99.90;;;;;;5051659;28;20092;-74
2022/12/31 02:38:20;;;;;;;1999.90;999.90;;;14.80;99.90;;;;;;5051495;28;20028;-74
2022/12/31 02:40:46;;;;;;;1999.90;999.90;;;14.70;99.90;;;;;;5047584;28;20041;-75
2022/12/31 02:43:12;;;;;;;1999.90;999.90;;;14.70;99.90;;;;;;5049650;28;20029;-76
2022/12/31 02:45:42;;;;;;;1999.90;999.90;;;14.60;99.90;;;;;;5051780;28;20030;-76
2022/12/31 02:48:13;;;;;;;1999.90;999.90;;;14.60;99.90;;;;;;5051677;28;20026;-74
2022/12/31 02:50:57;;;;;;;1999.90;999.90;;;14.50;99.90;;;;;;5051537;28;20036;-75
2022/12/31 02:53:28;;;;;;;1999.90;999.90;;;14.50;99.90;;;;;;5051426;28;20031;-74
2022/12/31 02:56:07;;;;;;;1999.90;999.90;;;14.50;99.90;;;;;;5049797;28;20041;-74
2022/12/31 03:04:31;;;;;;;1999.90;999.90;;;14.60;99.90;;;;;;5050441;28;20132;-74
2022/12/31 03:07:01;;;;;;;1999.90;999.90;;;14.60;99.90;;;;;;5050935;28;20029;-76
2022/12/31 03:09:27;;;;;;;1999.90;999.90;;;14.60;99.90;;;;;;5051143;28;20028;-75
2022/12/31 03:14:38;;;;;;;1999.90;999.90;;;14.60;99.90;;;;;;5051692;28;20028;-74
2022/12/31 03:17:03;;;;;;;1999.90;999.90;;;14.60;99.90;;;;;;5051063;28;20408;-74
2022/12/31 03:22:28;;;;;;;1999.90;999.90;;;14.60;99.90;;;;;;5052850;28;20035;-75
2022/12/31 03:27:50;;;;;;;1999.90;999.90;;;14.60;99.90;;;;;;5054753;28;20090;-75
2022/12/31 03:30:17;;;;;;;1999.90;999.90;;;14.60;99.90;;;;;;5053332;28;20025;-75
2022/12/31 03:32:44;;;;;;;1999.90;999.90;;;14.50;99.90;;;;;;5054792;28;20033;-74
2022/12/31 03:35:12;;;;;;;1999.90;999.90;;;14.50;99.90;;;;;;5054530;28;20029;-74
2022/12/31 03:37:38;;;;;;;1999.90;999.90;;;14.50;99.90;;;;;;5054649;28;20123;-75
2022/12/31 03:40:06;;;;;;;1999.90;999.90;;;14.50;99.90;;;;;;5054324;28;20056;-74
2022/12/31 03:42:32;;;;;;;1999.90;999.90;;;14.50;99.90;;;;;;5054163;28;20021;-73
2022/12/31 03:44:57;;;;;;;1999.90;999.90;;;14.50;99.90;;;;;;5054283;28;20421;-75
2022/12/31 03:47:23;;;;;;;1999.90;999.90;;;14.50;99.90;;;;;;5054272;28;20048;-74
2022/12/31 03:49:49;;;;;;;1999.90;999.90;;;14.40;99.90;;;;;;5054328;28;20082;-76
2022/12/31 03:52:14;;;;;;;1999.90;999.90;;;14.50;99.90;;;;;;5054499;28;20496;-74
2022/12/31 03:54:40;;;;;;;1999.90;999.90;;;14.50;99.90;;;;;;5054282;28;20036;-76
2022/12/31 03:57:05;;;;;;;1999.90;999.90;;;14.60;99.90;;;;;;5054038;28;20039;-77
2022/12/31 03:59:31;;;;;;;1999.90;999.90;;;14.60;99.90;;;;;;5054289;28;20029;-74
2022/12/31 04:01:57;;;;;;;1999.90;999.90;;;14.60;99.90;;;;;;5054227;28;20021;-76
2022/12/31 04:04:22;;;;;;;1999.90;999.90;;;14.50;99.90;;;;;;5054355;28;20520;-74
2022/12/31 04:06:48;;;;;;;1999.90;999.90;;;14.50;99.90;;;;;;5053380;28;20036;-74
2022/12/31 04:09:14;;;;;;;1999.90;999.90;;;14.50;99.90;;;;;;5053926;28;20500;-74
2022/12/31 04:11:39;;;;;;;1999.90;999.90;;;14.50;99.90;;;;;;5053477;28;20064;-74
2022/12/31 04:14:05;;;;;;;1999.90;999.90;;;14.50;99.90;;;;;;5053943;28;20103;-74
2022/12/31 04:16:31;;;;;;;1999.90;999.90;;;14.50;99.90;;;;;;5053361;28;20396;-74
2022/12/31 04:18:57;;;;;;;1999.90;999.90;;;14.50;99.90;;;;;;5053731;28;20036;-74
2022/12/31 04:21:23;;;;;;;1999.90;999.90;;;14.60;99.90;;;;;;5053371;28;20023;-74
2022/12/31 04:23:49;;;;;;;1999.90;999.90;;;14.50;99.90;;;;;;5053482;28;20021;-74
2022/12/31 04:26:14;;;;;;;1999.90;999.90;;;14.40;99.90;;;;;;5053516;28;20029;-74
2022/12/31 04:28:40;;;;;;;1999.90;999.90;;;14.50;99.90;;;;;;5053758;28;20455;-75
2022/12/31 04:31:06;;;;;;;1999.90;999.90;;;14.40;99.90;;;;;;5053436;28;20040;-74
2022/12/31 04:33:31;;;;;;;1999.90;999.90;;;14.40;99.90;;;;;;5053002;28;20480;-73
2022/12/31 04:36:04;;;;;;;1999.90;999.90;;;14.30;99.90;;;;;;5053142;28;20484;-74
2022/12/31 04:38:30;;;;;;;;;;;14.30;99.90;;;;;;5054762;28;20108;-74
2022/12/31 04:43:40;;;;;;;1999.90;999.90;;;14.30;99.90;;;;;;5053527;28;20510;-77
2022/12/31 04:46:06;;;;;;;1999.90;999.90;;;14.30;99.90;;;;;;5053459;28;20025;-74
2022/12/31 04:48:32;;;;;;;1999.90;999.90;;;14.30;99.90;;;;;;5053522;28;20025;-73
2022/12/31 04:50:58;;;;;;;1999.90;999.90;;;14.30;99.90;;;;;;5053059;28;20484;-74
2022/12/31 04:53:24;;;;;;;1999.90;999.90;;;14.20;99.90;;;;;;5053003;28;20029;-74
2022/12/31 04:55:50;;;;;;;1999.90;999.90;;;14.20;99.90;;;;;;5052925;28;20392;-78
2022/12/31 04:58:17;;;;;;;1999.90;999.90;;;14.20;99.90;;;;;;5053319;28;20025;-76
2022/12/31 05:00:44;;;;;;;1999.90;999.90;;;14.10;99.90;;;;;;5052806;28;20033;-75
2022/12/31 05:03:11;;;;;;;1999.90;999.90;;;14.10;99.90;;;;;;5053087;28;20052;-76
2022/12/31 05:05:41;;;;;;;1999.90;999.90;;;14.10;99.90;;;;;;5052468;28;20111;-74
2022/12/31 05:08:08;;;;;;;1999.90;999.90;;;14.10;99.90;;;;;;5053048;28;20063;-74
2022/12/31 05:10:35;;;;;;;1999.90;999.90;;;14.10;99.90;;;;;;5052908;28;20500;-77
2022/12/31 05:13:00;;;;;;;1999.90;999.90;;;14.20;99.90;;;;;;5051934;28;20021;-74
2022/12/31 05:15:26;;;;;;;1999.90;999.90;;;14.20;99.90;;;;;;5052772;28;20021;-74
2022/12/31 05:17:51;;;;;;;1999.90;999.90;;;14.10;99.90;;;;;;5048028;28;20090;-77
2022/12/31 05:20:17;;;;;;;1999.90;999.90;;;14.10;99.90;;;;;;5032876;28;20056;-74
2022/12/31 05:22:43;;;;;;;1999.90;999.90;;;14.20;99.90;;;;;;5049112;28;20503;-74
2022/12/31 05:25:08;;;;;;;1999.90;999.90;;;14.20;99.90;;;;;;5052176;28;20092;-74
2022/12/31 05:27:34;;;;;;;1999.90;999.90;;;14.10;99.90;;;;;;5052562;28;20032;-76
2022/12/31 05:30:00;;;;;;;1999.90;999.90;;;14.10;99.90;;;;;;5052621;28;20025;-74
2022/12/31 05:32:25;;;;;;;1999.90;999.90;;;14.10;99.90;;;;;;5052521;28;20029;-76
2022/12/31 05:34:52;;;;;;;1999.90;999.90;;;14.10;99.90;;;;;;5052396;28;20021;-74
2022/12/31 05:37:18;;;;;;;1999.90;999.90;;;14.10;99.90;;;;;;5052183;28;20029;-74
2022/12/31 05:39:43;;;;;;;1999.90;999.90;;;14.10;99.90;;;;;;5052380;28;20032;-76
2022/12/31 05:42:09;;;;;;;1999.90;999.90;;;14.00;99.90;;;;;;5052151;28;20025;-76
2022/12/31 05:44:34;;;;;;;1999.90;999.90;;;14.00;99.90;;;;;;5051875;28;20024;-76
2022/12/31 05:47:00;;;;;;;1999.90;999.90;;;14.10;99.90;;;;;;5052031;28;20104;-74
2022/12/31 05:49:26;;;;;;;1999.90;999.90;;;14.00;99.90;;;;;;5052108;28;20510;-74
2022/12/31 05:51:51;;;;;;;1999.90;999.90;;;14.10;99.90;;;;;;5052000;28;20080;-74
2022/12/31 05:54:17;;;;;;;1999.90;999.90;;;14.10;99.90;;;;;;5052481;28;20055;-76
2022/12/31 05:56:42;;;;;;;1999.90;999.90;;;14.10;99.90;;;;;;5051981;28;20489;-76
2022/12/31 05:59:08;;;;;;;1999.90;999.90;;;14.10;99.90;;;;;;5051924;28;20033;-76
2022/12/31 06:01:33;;;;;;;1999.90;999.90;;;14.10;99.90;;;;;;5051874;28;20037;-75
2022/12/31 06:03:59;;;;;;;1999.90;999.90;;;14.10;99.90;;;;;;5051900;28;20049;-78
2022/12/31 06:06:25;;;;;;;1999.90;999.90;;;14.10;99.90;;;;;;5051368;28;20068;-75
2022/12/31 06:08:51;;;;;;;1999.90;999.90;;;14.10;99.90;;;;;;5051975;28;20025;-76
2022/12/31 06:11:17;;;;;;;1999.90;999.90;;;14.20;99.90;;;;;;5051617;28;20025;-74
2022/12/31 06:13:43;;;;;;;1999.90;999.90;;;14.00;99.90;;;;;;5051417;28;20036;-76
2022/12/31 06:16:10;;;;;;;1999.90;999.90;;;14.10;99.90;;;;;;5052160;28;20052;-78
2022/12/31 06:18:36;;;;;;;1999.90;999.90;;;14.10;99.90;;;;;;5051874;28;20036;-74
2022/12/31 06:21:03;;;;;;;1999.90;999.90;;;14.10;99.90;;;;;;5051793;28;20029;-74
2022/12/31 06:23:28;;;;;;;1999.90;999.90;;;14.20;99.90;;;;;;5051418;28;20104;-74
2022/12/31 06:25:54;;;;;;;1999.90;999.90;;;14.10;99.90;;;;;;5051435;28;20103;-73
2022/12/31 06:28:20;;;;;;;1999.90;999.90;;;14.10;99.90;;;;;;5052025;28;20017;-74
2022/12/31 06:30:46;;;;;;;1999.90;999.90;;;14.10;99.90;;;;;;5051835;28;20435;-74
2022/12/31 06:33:12;;;;;;;1999.90;999.90;;;14.10;99.90;;;;;;5051386;28;20424;-75
2022/12/31 06:35:37;;;;;;;1999.90;999.90;;;14.00;99.90;;;;;;5046670;28;20065;-74
2022/12/31 06:38:03;;;;;;;1999.90;999.90;;;14.00;99.90;;;;;;5031860;28;20033;-76
2022/12/31 06:40:28;;;;;;;1999.90;999.90;;;14.00;99.90;;;;;;5031862;28;20093;-76
2022/12/31 06:42:54;;;;;;;1999.90;999.90;;;14.10;99.90;;;;;;5031319;28;20547;-74
2022/12/31 06:45:20;;;;;;;1999.90;999.90;;;14.00;99.90;;;;;;5038621;28;20048;-74
2022/12/31 06:47:45;;;;;;;1999.90;999.90;;;14.00;99.90;;;;;;5051644;28;20033;-76
2022/12/31 06:50:11;;;;;;;1999.90;999.90;;;13.90;99.90;;;;;;5051517;28;20499;-77
2022/12/31 06:52:36;;;;;;;1999.90;999.90;;;13.70;99.90;;;;;;5050348;28;20083;-74
2022/12/31 06:55:03;;;;;;;1999.90;999.90;;;13.40;99.90;;;;;;5051408;28;20025;-76
2022/12/31 06:57:29;;;;;;;1999.90;999.90;;;13.30;99.90;;;;;;5055016;28;20036;-74
2022/12/31 06:59:55;;;;;;;1999.90;999.90;;;13.20;99.90;;;;;;5054080;28;20083;-76
2022/12/31 07:02:45;;;;;;;1999.90;999.90;;;13.20;99.90;;;;;;5055261;28;20021;-74
2022/12/31 07:05:42;;;;;;;1999.90;999.90;;;13.10;99.90;;;;;;5037664;28;20049;-75
2022/12/31 07:08:29;;;;;;;1999.90;999.90;;;13.20;99.90;;;;;;5053457;28;20032;-73
2022/12/31 07:11:04;;;;;;;1999.90;999.90;;;13.20;99.90;;;;;;5054909;28;20032;-76
2022/12/31 07:13:46;;;;;;;1999.90;999.90;;;13.30;99.90;;;;;;5054728;28;20108;-75
2022/12/31 07:16:32;;;;;;;1999.90;999.90;;;13.40;99.90;;;;;;5054870;28;20017;-75
2022/12/31 07:19:27;;;;;;;1999.90;999.90;;;13.50;99.90;;;;;;5034803;28;20477;-76
2022/12/31 07:21:56;;;;;;;1999.90;999.90;;;13.50;99.90;;;;;;5044320;28;20032;-73
2022/12/31 07:24:22;;;;;;;1999.90;999.90;;;13.60;99.90;;;;;;5055034;28;20025;-73
2022/12/31 07:27:03;;;;;;;1999.90;999.90;;;13.60;99.90;;;;;;5054551;28;20017;-73
2022/12/31 07:29:40;;;;;;;1999.90;999.90;;;13.60;99.90;;;;;;5054653;28;20112;-74
2022/12/31 07:32:39;;;;;;;1999.90;999.90;;;13.60;99.90;;;;;;5054682;28;20025;-74
2022/12/31 07:35:43;;;;;;;1999.90;999.90;;;13.60;99.90;;;;;;5054569;28;20083;-77
2022/12/31 07:38:49;;;;;;;1999.90;999.90;;;13.60;99.90;;;;;;5031254;28;20029;-77
2022/12/31 07:41:27;;;;;;;1999.90;999.90;;;13.70;99.90;;;;;;5054189;28;20405;-75
2022/12/31 07:44:00;;;;;;;1999.90;999.90;;;13.70;99.90;;;;;;5054622;28;20059;-74
2022/12/31 07:46:34;;;;;;;;;;;13.70;99.90;;;;;;5054973;28;20032;-76
2022/12/31 07:49:00;;;;;;;1999.90;999.90;;;13.60;99.90;;;;;;5054176;28;19916;-75
2022/12/31 07:51:26;;;;;;;1999.90;999.90;;;13.60;99.90;;;;;;5053012;28;20377;-75
2022/12/31 07:53:52;;;;;;;1999.90;999.90;;;13.60;99.90;;;;;;5054300;28;20025;-73
2022/12/31 07:56:18;;;;;;;1999.90;999.90;;;13.50;99.90;;;;;;5054328;28;20132;-73
2022/12/31 07:59:10;;;;;;;1999.90;999.90;;;13.60;99.90;;;;;;5054505;28;20040;-73
2022/12/31 08:01:47;;;;;;;1999.90;999.90;;;13.60;99.90;;;;;;5054037;28;20039;-73
2022/12/31 08:04:36;;;;;;;1999.90;999.90;;;13.60;99.90;;;;;;5053890;28;20081;-73
2022/12/31 08:07:40;;;;;;;1999.90;999.90;;;13.60;99.90;;;;;;5053395;28;20056;-75
2022/12/31 08:10:15;;;;;;;1999.90;999.90;;;13.60;99.90;;;;;;5054247;28;20052;-76
2022/12/31 08:12:41;;;;;;;1999.90;999.90;;;13.70;99.90;;;;;;5053598;28;20021;-73
2022/12/31 08:15:15;;;;;;;1999.90;999.90;;;13.70;99.90;;;;;;5053865;28;20036;-75
2022/12/31 08:17:41;;;;;;;1999.90;999.90;;;13.80;99.90;;;;;;5053541;28;20029;-74
2022/12/31 08:20:11;;;;;;;1999.90;999.90;;;13.80;99.90;;;;;;5052301;28;20040;-74
2022/12/31 08:23:03;;;;;;;1999.90;999.90;;;13.80;99.90;;;;;;5053728;28;20057;-72
2022/12/31 08:25:52;;;;;;;1999.90;999.90;;;13.90;99.90;;;;;;5053357;28;20029;-77
2022/12/31 08:28:44;;;;;;;1999.90;999.90;;;13.90;99.90;;;;;;5043351;28;20037;-73
2022/12/31 08:31:16;;;;;;;1999.90;999.90;;;13.90;99.90;;;;;;5053384;28;20055;-74
2022/12/31 08:34:10;;;;;;;1999.90;999.90;;;13.90;99.90;;;;;;5053443;28;20028;-74
2022/12/31 08:36:58;;;;;;;1999.90;999.90;;;13.80;99.90;;;;;;5053629;28;20055;-74
2022/12/31 08:39:55;;;;;;;1999.90;999.90;;;13.70;99.90;;;;;;5053959;28;20457;-74
2022/12/31 08:42:33;;;;;;;1999.90;999.90;;;13.70;99.90;;;;;;5053055;28;20035;-75
2022/12/31 08:45:29;;;;;;;1999.90;999.90;;;13.80;99.90;;;;;;5053088;28;20031;-75
2022/12/31 08:48:19;;;;;;;1999.90;999.90;;;13.70;99.90;;;;;;5053274;28;20050;-74
2022/12/31 08:50:45;;;;;;;1999.90;999.90;;;13.60;99.90;;;;;;5053396;28;20079;-76
2022/12/31 08:53:11;;;;;;;1999.90;999.90;;;13.50;99.90;;;;;;5051634;28;20036;-74
2022/12/31 08:55:37;;;;;;;1999.90;999.90;;;13.50;99.90;;;;;;5053144;28;20078;-74
2022/12/31 08:58:35;;;;;;;1999.90;999.90;;;13.40;99.90;;;;;;5052988;28;20048;-74
2022/12/31 09:01:02;;;;;;;1999.90;999.90;;;13.30;99.90;;;;;;5052750;28;20391;-76
2022/12/31 09:04:19;;;;;;;1999.90;999.90;;;13.20;99.90;;;;;;5052881;28;20021;-74
2022/12/31 09:06:56;;;;;;;1999.90;999.90;;;13.10;99.90;;;;;;5035702;28;20088;-73
2022/12/31 09:09:37;;;;;;;1999.90;999.90;;;13.20;99.90;;;;;;5050863;28;20048;-73
2022/12/31 09:12:47;;;;;;;1999.90;999.90;;;13.20;99.90;;;;;;5052672;28;20146;-79
2022/12/31 09:15:31;;;;;;;1999.90;999.90;;;13.30;99.90;;;;;;5010712;28;20515;-75
2022/12/31 09:17:57;;;;;;;1999.90;999.90;;;13.30;99.90;;;;;;5010805;28;20145;-73
2022/12/31 09:20:26;;;;;;;1999.90;999.90;;;13.40;99.90;;;;;;5009975;28;20104;-73
2022/12/31 09:22:53;;;;;;;1999.90;999.90;;;13.40;99.90;;;;;;5010523;28;20107;-75
2022/12/31 09:25:20;;;;;;;1999.90;999.90;;;13.40;99.90;;;;;;5010126;28;20033;-75
2022/12/31 09:27:55;;;;;;;1999.90;999.90;;;13.40;99.90;;;;;;5010388;28;20026;-75
2022/12/31 09:30:21;;;;;;;1999.90;999.90;;;13.40;99.90;;;;;;5010550;28;20042;-75
2022/12/31 09:33:10;;;;;;;1999.90;999.90;;;13.40;99.90;;;;;;5010648;28;20037;-73
2022/12/31 09:35:42;;;;;;;1999.90;999.90;;;13.40;99.90;;;;;;5010641;28;20068;-75
2022/12/31 09:38:51;;;;;;;1999.90;999.90;;;13.40;99.90;;;;;;5010800;28;20489;-76
2022/12/31 09:42:07;;;;;;;1999.90;999.90;;;13.40;99.90;;;;;;4993569;28;20034;-74
2022/12/31 09:44:41;;;;;;;1999.90;999.90;;;13.40;99.90;;;;;;4971339;28;20608;-73
2022/12/31 09:47:16;;;;;;;1999.90;999.90;;;13.40;99.90;;;;;;4971086;28;20166;-74
2022/12/31 09:50:10;;;;;;;1999.90;999.90;;;13.40;99.90;;;;;;4985047;28;20041;-76
2022/12/31 09:52:57;;;;;;;1999.90;999.90;;;13.40;99.90;;;;;;4990942;28;20026;-73
2022/12/31 09:56:00;;;;;;;1999.90;999.90;;;13.40;99.90;;;;;;4990522;28;20088;-74
2022/12/31 09:58:29;;;;;;;;;;;13.40;99.90;;;;;;4974793;28;20058;-75
2022/12/31 10:01:09;;;;;;;1999.90;999.90;;;13.50;99.90;;;;;;4990697;28;19949;-74
2022/12/31 10:04:20;;;;;;;1999.90;999.90;;;13.50;99.90;;;;;;4990334;28;20041;-74
2022/12/31 10:07:12;;;;;;;1999.90;999.90;;;13.50;99.90;;;;;;4980825;28;20043;-73
2022/12/31 10:09:40;;;;;;;1999.90;999.90;;;13.50;99.90;;;;;;4989754;28;20038;-73
2022/12/31 10:12:24;;;;;;;1999.90;999.90;;;13.50;99.90;;;;;;4990053;28;20061;-76
2022/12/31 10:14:54;;;;;;;1999.90;999.90;;;13.50;99.90;;;;;;4994788;28;20488;-76
2022/12/31 10:18:01;;;;;;;1999.90;999.90;;;13.50;99.90;;;;;;5051356;28;20396;-76
2022/12/31 10:20:54;;;;;;;1999.90;999.90;;;13.60;99.90;;;;;;5051531;28;20435;-74
2022/12/31 10:23:46;;;;;;;1999.90;999.90;;;13.70;99.90;;;;;;5031515;28;20477;-73
2022/12/31 10:26:42;;;;;;;1999.90;999.90;;;13.70;99.90;;;;;;5031511;28;20087;-77
2022/12/31 10:29:22;;;;;;;1999.90;999.90;;;13.80;99.90;;;;;;5031626;28;20049;-75
2022/12/31 10:32:12;;;;;;;1999.90;999.90;;;13.90;99.90;;;;;;5034558;28;20481;-75
2022/12/31 10:35:08;;;;;;;1999.90;999.90;;;13.90;99.90;;;;;;5036042;28;20488;-73
2022/12/31 10:37:49;;;;;;;1999.90;999.90;;;14.00;99.90;;;;;;5035560;28;20044;-73
2022/12/31 10:40:53;;;;;;;1999.90;999.90;;;14.00;99.90;;;;;;5035839;28;20021;-73
2022/12/31 10:43:52;;;;;;;1999.90;999.90;;;14.00;99.90;;;;;;5034664;28;20048;-74
2022/12/31 10:46:40;;;;;;;1999.90;999.90;;;13.90;99.90;;;;;;5050608;28;20020;-73
2022/12/31 10:49:08;;;;;;;1999.90;999.90;;;13.90;99.90;;;;;;5055228;28;20442;-74
2022/12/31 10:52:01;;;;;;;1999.90;999.90;;;13.80;99.90;;;;;;5055444;28;20412;-73
2022/12/31 10:54:43;;;;;;;1999.90;999.90;;;13.80;99.90;;;;;;5055748;28;20033;-74
2022/12/31 10:57:49;;;;;;;1999.90;999.90;;;13.80;99.90;;;;;;5054991;28;20116;-75
2022/12/31 11:00:19;;;;;;;1999.90;999.90;;;13.80;99.90;;;;;;5055399;28;20307;-74
2022/12/31 11:02:54;;;;;;;1999.90;999.90;;;13.90;99.90;;;;;;5055593;28;20021;-74
2022/12/31 11:05:31;;;;;;;1999.90;999.90;;;13.90;99.90;;;;;;5054942;28;20424;-74
2022/12/31 11:08:09;;;;;;;1999.90;999.90;;;13.90;99.90;;;;;;5055242;28;20021;-75
2022/12/31 11:11:06;;;;;;;1999.90;999.90;;;14.00;99.90;;;;;;5054564;28;20553;-73
2022/12/31 11:13:54;;;;;;;1999.90;999.90;;;14.00;99.90;;;;;;5048967;28;20496;-75
2022/12/31 11:16:26;;;;;;;1999.90;999.90;;;14.00;99.90;;;;;;5055451;28;20060;-74
2022/12/31 11:19:08;;;;;;;1999.90;999.90;;;14.00;99.90;;;;;;5054905;28;20029;-75
2022/12/31 11:21:44;;;;;;;1999.90;999.90;;;14.00;99.90;;;;;;5054538;28;20064;-74
2022/12/31 11:24:37;;;;;;;1999.90;999.90;;;14.20;99.90;;;;;;5054614;28;20017;-75
2022/12/31 11:27:14;;;;;;;1999.90;999.90;;;14.30;99.90;;;;;;5054411;28;20035;-73
2022/12/31 11:29:55;;;;;;;1999.90;999.90;;;14.50;99.90;;;;;;5053659;28;20052;-73
2022/12/31 11:32:45;;;;;;;1999.90;999.90;;;14.40;99.90;;;;;;5054737;28;20032;-75
2022/12/31 11:35:44;;;;;;;1999.90;999.90;;;14.50;99.90;;;;;;5054670;28;20459;-74
2022/12/31 11:38:28;;;;;;;1999.90;999.90;;;14.50;99.90;;;;;;5054811;28;20113;-75
2022/12/31 11:41:19;;;;;;;1999.90;999.90;;;14.50;99.90;;;;;;5054437;28;20025;-73
2022/12/31 11:44:25;;;;;;;1999.90;999.90;;;14.50;99.90;;;;;;5053515;28;20078;-73
2022/12/31 11:47:24;;;;;;;1999.90;999.90;;;14.50;99.90;;;;;;5054436;28;20024;-72
2022/12/31 11:50:29;;;;;;;1999.90;999.90;;;14.50;99.90;;;;;;5054355;28;20196;-73
2022/12/31 11:53:03;;;;;;;1999.90;999.90;;;14.40;99.90;;;;;;5054200;28;20029;-73
2022/12/31 11:55:55;;;;;;;1999.90;999.90;;;14.50;99.90;;;;;;5054259;28;20036;-73
2022/12/31 11:58:27;;;;;;;1999.90;999.90;;;14.50;99.90;;;;;;5053579;28;20017;-73
2022/12/31 12:01:10;;;;;;;1999.90;999.90;;;14.60;99.90;;;;;;5054146;28;20108;-74
2022/12/31 12:03:41;;;;;;;1999.90;999.90;;;14.60;99.90;;;;;;5052648;28;20029;-72
2022/12/31 12:06:10;;;;;;;1999.90;999.90;;;14.80;99.90;;;;;;5054157;28;20028;-74
2022/12/31 12:08:36;;;;;;;1999.90;999.90;;;14.80;99.90;;;;;;5054109;28;20017;-74
2022/12/31 12:11:24;;;;;;;1999.90;999.90;;;14.80;99.90;;;;;;5053221;28;20104;-75
2022/12/31 12:13:50;;;;;;;1999.90;999.90;;;14.90;99.90;;;;;;5053532;28;20495;-73
2022/12/31 12:16:15;;;;;;;1999.90;999.90;;;14.90;99.90;;;;;;5052854;28;20111;-73
2022/12/31 12:18:48;;;;;;;1999.90;999.90;;;14.90;99.90;;;;;;5049401;28;20025;-74
2022/12/31 12:21:22;;;;;;;1999.90;999.90;;;15.00;99.90;;;;;;5037726;28;20575;-71
2022/12/31 12:24:15;;;;;;;1999.90;999.90;;;15.00;99.90;;;;;;5052050;28;20025;-72
2022/12/31 12:26:43;;;;;;;1999.90;999.90;;;15.00;99.90;;;;;;5053400;28;20472;-76
2022/12/31 12:29:19;;;;;;;1999.90;999.90;;;15.00;99.90;;;;;;5053777;28;20033;-72
2022/12/31 12:32:00;;;;;;;1999.90;999.90;;;15.00;99.90;;;;;;5053934;28;20041;-73
2022/12/31 12:34:29;;;;;;;1999.90;999.90;;;15.00;99.90;;;;;;5053586;28;20029;-73
2022/12/31 12:36:55;;;;;;;1999.90;999.90;;;15.00;99.90;;;;;;5053508;28;20033;-74
2022/12/31 12:39:24;;;;;;;1999.90;999.90;;;15.10;99.90;;;;;;5053210;28;20033;-75
2022/12/31 12:42:03;;;;;;;1999.90;999.90;;;15.00;99.90;;;;;;5052919;28;20037;-74
2022/12/31 12:44:29;;;;;;;1999.90;999.90;;;15.00;99.90;;;;;;5053628;28;20549;-72
2022/12/31 12:46:55;;;;;;;1999.90;999.90;;;15.10;99.90;;;;;;5033398;28;20491;-73
2022/12/31 12:49:28;;;;;;;1999.90;999.90;;;15.20;99.90;;;;;;5033350;28;20032;-74
2022/12/31 12:52:31;;;;;;;1999.90;999.90;;;15.20;99.90;;;;;;5032913;28;20040;-74